sensor_id;sensor_type;location;lat;lon;timestamp;P1;durP1;ratioP1;P2;durP2;ratioP2
17347;SDS011;8791;50.876;4.342;2024-01-07T00:02:06;15.80;;;9.60;;
17347;SDS011;8791;50.876;4.342;2024-01-07T00:04:33;16.30;;;8.93;;
17347;SDS011;8791;50.876;4.342;2024-01-07T00:07:00;12.00;;;9.50;;
17347;SDS011;8791;50.876;4.342;2024-01-07T00:09:27;14.27;;;9.40;;
17347;SDS011;8791;50.876;4.342;2024-01-07T00:11:55;13.07;;;10.30;;
17347;SDS011;8791;50.876;4.342;2024-01-07T00:14:22;14.77;;;9.90;;
17347;SDS011;8791;50.876;4.342;2024-01-07T00:16:49;13.67;;;9.90;;
17347;SDS011;8791;50.876;4.342;2024-01-07T00:19:16;11.77;;;9.77;;
17347;SDS011;8791;50.876;4.342;2024-01-07T00:21:43;13.87;;;10.30;;
17347;SDS011;8791;50.876;4.342;2024-01-07T00:24:10;14.23;;;10.40;;
17347;SDS011;8791;50.876;4.342;2024-01-07T00:26:37;12.43;;;10.13;;
17347;SDS011;8791;50.876;4.342;2024-01-07T00:29:06;14.47;;;10.73;;
17347;SDS011;8791;50.876;4.342;2024-01-07T00:31:33;14.23;;;10.00;;
17347;SDS011;8791;50.876;4.342;2024-01-07T00:33:59;16.00;;;11.13;;
17347;SDS011;8791;50.876;4.342;2024-01-07T00:36:26;13.03;;;10.40;;
17347;SDS011;8791;50.876;4.342;2024-01-07T00:38:53;14.90;;;10.93;;
17347;SDS011;8791;50.876;4.342;2024-01-07T00:41:20;14.43;;;10.83;;
17347;SDS011;8791;50.876;4.342;2024-01-07T00:43:47;15.03;;;10.67;;
17347;SDS011;8791;50.876;4.342;2024-01-07T00:46:15;16.83;;;11.03;;
17347;SDS011;8791;50.876;4.342;2024-01-07T00:48:42;13.03;;;10.23;;
17347;SDS011;8791;50.876;4.342;2024-01-07T00:51:09;14.40;;;10.60;;
17347;SDS011;8791;50.876;4.342;2024-01-07T00:53:36;16.03;;;10.30;;
17347;SDS011;8791;50.876;4.342;2024-01-07T00:56:03;13.70;;;10.57;;
17347;SDS011;8791;50.876;4.342;2024-01-07T00:58:32;15.47;;;11.43;;
17347;SDS011;8791;50.876;4.342;2024-01-07T01:00:58;15.07;;;11.13;;
17347;SDS011;8791;50.876;4.342;2024-01-07T01:03:27;15.60;;;11.43;;
17347;SDS011;8791;50.876;4.342;2024-01-07T01:05:54;16.87;;;11.27;;
17347;SDS011;8791;50.876;4.342;2024-01-07T01:08:21;17.03;;;11.07;;
17347;SDS011;8791;50.876;4.342;2024-01-07T01:10:48;16.40;;;11.97;;
17347;SDS011;8791;50.876;4.342;2024-01-07T01:13:15;16.30;;;10.93;;
17347;SDS011;8791;50.876;4.342;2024-01-07T01:15:42;16.40;;;11.33;;
17347;SDS011;8791;50.876;4.342;2024-01-07T01:18:09;11.10;;;9.80;;
17347;SDS011;8791;50.876;4.342;2024-01-07T01:20:37;15.57;;;10.77;;
17347;SDS011;8791;50.876;4.342;2024-01-07T01:23:04;13.40;;;10.73;;
17347;SDS011;8791;50.876;4.342;2024-01-07T01:25:31;14.77;;;10.43;;
17347;SDS011;8791;50.876;4.342;2024-01-07T01:27:58;13.03;;;10.43;;
17347;SDS011;8791;50.876;4.342;2024-01-07T01:30:25;13.23;;;10.00;;
17347;SDS011;8791;50.876;4.342;2024-01-07T01:32:52;14.17;;;9.87;;
17347;SDS011;8791;50.876;4.342;2024-01-07T01:35:19;15.30;;;10.40;;
17347;SDS011;8791;50.876;4.342;2024-01-07T01:37:47;12.83;;;10.87;;
17347;SDS011;8791;50.876;4.342;2024-01-07T01:40:16;16.33;;;10.80;;
17347;SDS011;8791;50.876;4.342;2024-01-07T01:42:43;12.90;;;10.23;;
17347;SDS011;8791;50.876;4.342;2024-01-07T01:45:10;17.33;;;9.80;;
17347;SDS011;8791;50.876;4.342;2024-01-07T01:47:37;13.57;;;10.20;;
17347;SDS011;8791;50.876;4.342;2024-01-07T01:50:05;14.20;;;11.53;;
17347;SDS011;8791;50.876;4.342;2024-01-07T01:52:33;16.37;;;11.30;;
17347;SDS011;8791;50.876;4.342;2024-01-07T01:55:02;15.57;;;10.40;;
17347;SDS011;8791;50.876;4.342;2024-01-07T01:57:32;15.90;;;11.03;;
17347;SDS011;8791;50.876;4.342;2024-01-07T02:00:00;15.43;;;11.77;;
17347;SDS011;8791;50.876;4.342;2024-01-07T02:02:30;16.03;;;11.73;;
17347;SDS011;8791;50.876;4.342;2024-01-07T02:04:59;19.73;;;12.50;;
17347;SDS011;8791;50.876;4.342;2024-01-07T02:07:26;17.03;;;12.30;;
17347;SDS011;8791;50.876;4.342;2024-01-07T02:09:53;19.83;;;13.27;;
17347;SDS011;8791;50.876;4.342;2024-01-07T02:12:22;19.87;;;13.33;;
17347;SDS011;8791;50.876;4.342;2024-01-07T02:14:49;20.27;;;11.60;;
17347;SDS011;8791;50.876;4.342;2024-01-07T02:17:16;14.13;;;11.00;;
17347;SDS011;8791;50.876;4.342;2024-01-07T02:19:44;15.57;;;10.40;;
17347;SDS011;8791;50.876;4.342;2024-01-07T02:22:11;15.50;;;10.67;;
17347;SDS011;8791;50.876;4.342;2024-01-07T02:24:39;16.73;;;10.70;;
17347;SDS011;8791;50.876;4.342;2024-01-07T02:27:06;14.47;;;10.30;;
17347;SDS011;8791;50.876;4.342;2024-01-07T02:29:33;15.03;;;10.50;;
17347;SDS011;8791;50.876;4.342;2024-01-07T02:32:00;15.30;;;10.90;;
17347;SDS011;8791;50.876;4.342;2024-01-07T02:34:26;15.17;;;10.57;;
17347;SDS011;8791;50.876;4.342;2024-01-07T02:36:53;15.10;;;10.90;;
17347;SDS011;8791;50.876;4.342;2024-01-07T02:39:20;14.87;;;10.17;;
17347;SDS011;8791;50.876;4.342;2024-01-07T02:41:49;14.40;;;10.10;;
17347;SDS011;8791;50.876;4.342;2024-01-07T02:44:16;17.37;;;11.10;;
17347;SDS011;8791;50.876;4.342;2024-01-07T02:46:43;15.90;;;11.07;;
17347;SDS011;8791;50.876;4.342;2024-01-07T02:49:11;16.80;;;11.70;;
17347;SDS011;8791;50.876;4.342;2024-01-07T02:51:38;24.37;;;11.90;;
17347;SDS011;8791;50.876;4.342;2024-01-07T02:54:05;17.70;;;11.57;;
17347;SDS011;8791;50.876;4.342;2024-01-07T02:56:32;22.30;;;13.00;;
17347;SDS011;8791;50.876;4.342;2024-01-07T02:59:00;18.80;;;12.07;;
17347;SDS011;8791;50.876;4.342;2024-01-07T03:01:27;19.23;;;12.67;;
17347;SDS011;8791;50.876;4.342;2024-01-07T03:03:54;20.47;;;13.77;;
17347;SDS011;8791;50.876;4.342;2024-01-07T03:06:21;18.20;;;12.70;;
17347;SDS011;8791;50.876;4.342;2024-01-07T03:08:48;20.67;;;13.03;;
17347;SDS011;8791;50.876;4.342;2024-01-07T03:11:15;20.73;;;12.80;;
17347;SDS011;8791;50.876;4.342;2024-01-07T03:13:42;22.77;;;13.90;;
17347;SDS011;8791;50.876;4.342;2024-01-07T03:16:19;21.97;;;14.13;;
17347;SDS011;8791;50.876;4.342;2024-01-07T03:18:46;24.87;;;13.63;;
17347;SDS011;8791;50.876;4.342;2024-01-07T03:21:16;20.50;;;13.30;;
17347;SDS011;8791;50.876;4.342;2024-01-07T03:23:44;22.67;;;13.80;;
17347;SDS011;8791;50.876;4.342;2024-01-07T03:26:12;20.17;;;13.03;;
17347;SDS011;8791;50.876;4.342;2024-01-07T03:28:39;23.40;;;13.63;;
17347;SDS011;8791;50.876;4.342;2024-01-07T03:31:07;25.70;;;14.20;;
17347;SDS011;8791;50.876;4.342;2024-01-07T03:33:37;24.03;;;13.87;;
17347;SDS011;8791;50.876;4.342;2024-01-07T03:36:06;22.13;;;14.23;;
17347;SDS011;8791;50.876;4.342;2024-01-07T03:38:34;22.30;;;14.90;;
17347;SDS011;8791;50.876;4.342;2024-01-07T03:41:01;21.97;;;14.30;;
17347;SDS011;8791;50.876;4.342;2024-01-07T03:43:28;24.17;;;14.30;;
17347;SDS011;8791;50.876;4.342;2024-01-07T03:45:55;24.67;;;15.47;;
17347;SDS011;8791;50.876;4.342;2024-01-07T03:48:22;27.27;;;14.90;;
17347;SDS011;8791;50.876;4.342;2024-01-07T03:50:50;26.20;;;16.60;;
17347;SDS011;8791;50.876;4.342;2024-01-07T03:53:17;26.10;;;15.80;;
17347;SDS011;8791;50.876;4.342;2024-01-07T03:55:44;26.50;;;16.57;;
17347;SDS011;8791;50.876;4.342;2024-01-07T03:58:14;25.80;;;16.70;;
17347;SDS011;8791;50.876;4.342;2024-01-07T04:00:41;29.20;;;17.33;;
17347;SDS011;8791;50.876;4.342;2024-01-07T04:03:08;31.37;;;18.13;;
17347;SDS011;8791;50.876;4.342;2024-01-07T04:05:34;31.17;;;18.23;;
17347;SDS011;8791;50.876;4.342;2024-01-07T04:08:05;31.43;;;17.50;;
17347;SDS011;8791;50.876;4.342;2024-01-07T04:10:35;29.23;;;17.27;;
17347;SDS011;8791;50.876;4.342;2024-01-07T04:13:02;28.07;;;16.97;;
17347;SDS011;8791;50.876;4.342;2024-01-07T04:15:30;30.80;;;17.53;;
17347;SDS011;8791;50.876;4.342;2024-01-07T04:17:56;29.40;;;17.57;;
17347;SDS011;8791;50.876;4.342;2024-01-07T04:20:26;28.27;;;18.33;;
17347;SDS011;8791;50.876;4.342;2024-01-07T04:22:53;33.87;;;19.37;;
17347;SDS011;8791;50.876;4.342;2024-01-07T04:25:21;35.93;;;19.77;;
17347;SDS011;8791;50.876;4.342;2024-01-07T04:27:48;37.80;;;20.53;;
17347;SDS011;8791;50.876;4.342;2024-01-07T04:30:15;34.93;;;18.90;;
17347;SDS011;8791;50.876;4.342;2024-01-07T04:32:42;36.17;;;20.10;;
17347;SDS011;8791;50.876;4.342;2024-01-07T04:35:09;43.10;;;20.07;;
17347;SDS011;8791;50.876;4.342;2024-01-07T04:37:37;41.03;;;21.13;;
17347;SDS011;8791;50.876;4.342;2024-01-07T04:40:04;41.50;;;21.33;;
17347;SDS011;8791;50.876;4.342;2024-01-07T04:42:33;41.00;;;20.40;;
17347;SDS011;8791;50.876;4.342;2024-01-07T04:45:00;39.73;;;20.50;;
17347;SDS011;8791;50.876;4.342;2024-01-07T04:47:28;42.37;;;22.20;;
17347;SDS011;8791;50.876;4.342;2024-01-07T04:49:55;42.27;;;21.63;;
17347;SDS011;8791;50.876;4.342;2024-01-07T04:52:23;38.33;;;21.27;;
17347;SDS011;8791;50.876;4.342;2024-01-07T04:54:50;41.60;;;22.83;;
17347;SDS011;8791;50.876;4.342;2024-01-07T04:57:18;37.50;;;21.17;;
17347;SDS011;8791;50.876;4.342;2024-01-07T04:59:46;42.30;;;21.33;;
17347;SDS011;8791;50.876;4.342;2024-01-07T05:02:14;42.87;;;22.93;;
17347;SDS011;8791;50.876;4.342;2024-01-07T05:04:42;41.90;;;23.17;;
17347;SDS011;8791;50.876;4.342;2024-01-07T05:07:09;43.03;;;22.87;;
17347;SDS011;8791;50.876;4.342;2024-01-07T05:09:36;37.63;;;20.30;;
17347;SDS011;8791;50.876;4.342;2024-01-07T05:12:03;51.33;;;22.63;;
17347;SDS011;8791;50.876;4.342;2024-01-07T05:14:30;44.80;;;22.67;;
17347;SDS011;8791;50.876;4.342;2024-01-07T05:16:58;44.93;;;22.87;;
17347;SDS011;8791;50.876;4.342;2024-01-07T05:19:25;41.67;;;22.17;;
17347;SDS011;8791;50.876;4.342;2024-01-07T05:21:52;43.67;;;23.07;;
17347;SDS011;8791;50.876;4.342;2024-01-07T05:24:19;38.17;;;22.47;;
17347;SDS011;8791;50.876;4.342;2024-01-07T05:26:46;41.13;;;22.50;;
17347;SDS011;8791;50.876;4.342;2024-01-07T05:29:13;43.90;;;21.83;;
17347;SDS011;8791;50.876;4.342;2024-01-07T05:31:40;41.50;;;21.37;;
17347;SDS011;8791;50.876;4.342;2024-01-07T05:34:09;40.90;;;22.27;;
17347;SDS011;8791;50.876;4.342;2024-01-07T05:36:35;41.97;;;22.03;;
17347;SDS011;8791;50.876;4.342;2024-01-07T05:39:02;40.27;;;22.13;;
17347;SDS011;8791;50.876;4.342;2024-01-07T05:41:29;40.87;;;21.70;;
17347;SDS011;8791;50.876;4.342;2024-01-07T05:43:56;40.10;;;22.07;;
17347;SDS011;8791;50.876;4.342;2024-01-07T05:46:23;43.27;;;22.60;;
17347;SDS011;8791;50.876;4.342;2024-01-07T05:48:50;40.07;;;21.30;;
17347;SDS011;8791;50.876;4.342;2024-01-07T05:51:18;36.53;;;20.37;;
17347;SDS011;8791;50.876;4.342;2024-01-07T05:53:45;38.67;;;21.07;;
17347;SDS011;8791;50.876;4.342;2024-01-07T05:56:12;38.97;;;20.40;;
17347;SDS011;8791;50.876;4.342;2024-01-07T05:58:39;39.63;;;21.63;;
17347;SDS011;8791;50.876;4.342;2024-01-07T06:01:06;37.20;;;20.87;;
17347;SDS011;8791;50.876;4.342;2024-01-07T06:03:34;36.47;;;20.63;;
17347;SDS011;8791;50.876;4.342;2024-01-07T06:06:01;38.33;;;20.83;;
17347;SDS011;8791;50.876;4.342;2024-01-07T06:08:29;37.37;;;20.73;;
17347;SDS011;8791;50.876;4.342;2024-01-07T06:10:56;36.33;;;21.07;;
17347;SDS011;8791;50.876;4.342;2024-01-07T06:13:23;39.03;;;21.70;;
17347;SDS011;8791;50.876;4.342;2024-01-07T06:15:50;38.73;;;20.20;;
17347;SDS011;8791;50.876;4.342;2024-01-07T06:18:18;40.33;;;22.17;;
17347;SDS011;8791;50.876;4.342;2024-01-07T06:20:45;43.37;;;21.77;;
17347;SDS011;8791;50.876;4.342;2024-01-07T06:23:12;46.17;;;21.87;;
17347;SDS011;8791;50.876;4.342;2024-01-07T06:25:40;40.87;;;22.87;;
17347;SDS011;8791;50.876;4.342;2024-01-07T06:28:08;44.23;;;21.87;;
17347;SDS011;8791;50.876;4.342;2024-01-07T06:30:36;44.40;;;23.40;;
17347;SDS011;8791;50.876;4.342;2024-01-07T06:33:03;40.93;;;22.40;;
17347;SDS011;8791;50.876;4.342;2024-01-07T06:35:31;45.70;;;22.83;;
17347;SDS011;8791;50.876;4.342;2024-01-07T06:37:58;47.53;;;22.80;;
17347;SDS011;8791;50.876;4.342;2024-01-07T06:40:25;48.17;;;23.43;;
17347;SDS011;8791;50.876;4.342;2024-01-07T06:42:53;49.60;;;22.83;;
17347;SDS011;8791;50.876;4.342;2024-01-07T06:45:21;51.50;;;23.33;;
17347;SDS011;8791;50.876;4.342;2024-01-07T06:47:48;53.80;;;23.50;;
17347;SDS011;8791;50.876;4.342;2024-01-07T06:50:15;50.63;;;23.10;;
17347;SDS011;8791;50.876;4.342;2024-01-07T06:52:45;58.43;;;24.13;;
17347;SDS011;8791;50.876;4.342;2024-01-07T06:55:12;53.80;;;25.70;;
17347;SDS011;8791;50.876;4.342;2024-01-07T06:57:39;50.20;;;23.33;;
17347;SDS011;8791;50.876;4.342;2024-01-07T07:00:07;52.43;;;24.40;;
17347;SDS011;8791;50.876;4.342;2024-01-07T07:02:35;54.73;;;23.47;;
17347;SDS011;8791;50.876;4.342;2024-01-07T07:05:02;50.80;;;23.03;;
17347;SDS011;8791;50.876;4.342;2024-01-07T07:07:29;54.03;;;24.50;;
17347;SDS011;8791;50.876;4.342;2024-01-07T07:09:56;56.93;;;24.90;;
17347;SDS011;8791;50.876;4.342;2024-01-07T07:12:23;54.97;;;25.50;;
17347;SDS011;8791;50.876;4.342;2024-01-07T07:14:50;62.33;;;25.67;;
17347;SDS011;8791;50.876;4.342;2024-01-07T07:17:18;55.67;;;27.03;;
17347;SDS011;8791;50.876;4.342;2024-01-07T07:19:45;66.83;;;27.13;;
17347;SDS011;8791;50.876;4.342;2024-01-07T07:22:12;67.03;;;25.63;;
17347;SDS011;8791;50.876;4.342;2024-01-07T07:24:40;69.97;;;27.00;;
17347;SDS011;8791;50.876;4.342;2024-01-07T07:27:07;70.33;;;27.57;;
17347;SDS011;8791;50.876;4.342;2024-01-07T07:29:34;63.33;;;26.83;;
17347;SDS011;8791;50.876;4.342;2024-01-07T07:32:01;62.77;;;27.27;;
17347;SDS011;8791;50.876;4.342;2024-01-07T07:34:29;68.40;;;27.10;;
17347;SDS011;8791;50.876;4.342;2024-01-07T07:36:56;64.23;;;27.60;;
17347;SDS011;8791;50.876;4.342;2024-01-07T07:39:23;63.40;;;27.37;;
17347;SDS011;8791;50.876;4.342;2024-01-07T07:41:51;68.40;;;26.13;;
17347;SDS011;8791;50.876;4.342;2024-01-07T07:44:18;66.93;;;29.50;;
17347;SDS011;8791;50.876;4.342;2024-01-07T07:46:45;70.83;;;29.37;;
17347;SDS011;8791;50.876;4.342;2024-01-07T07:49:12;75.07;;;31.27;;
17347;SDS011;8791;50.876;4.342;2024-01-07T07:51:40;67.47;;;30.27;;
17347;SDS011;8791;50.876;4.342;2024-01-07T07:54:07;69.70;;;31.20;;
17347;SDS011;8791;50.876;4.342;2024-01-07T07:56:34;72.90;;;29.07;;
17347;SDS011;8791;50.876;4.342;2024-01-07T07:59:01;73.53;;;30.43;;
17347;SDS011;8791;50.876;4.342;2024-01-07T08:01:28;70.63;;;30.13;;
17347;SDS011;8791;50.876;4.342;2024-01-07T08:03:55;76.23;;;30.70;;
17347;SDS011;8791;50.876;4.342;2024-01-07T08:06:22;71.03;;;30.33;;
17347;SDS011;8791;50.876;4.342;2024-01-07T08:08:58;65.90;;;31.10;;
17347;SDS011;8791;50.876;4.342;2024-01-07T08:11:25;81.60;;;32.30;;
17347;SDS011;8791;50.876;4.342;2024-01-07T08:13:52;74.00;;;31.93;;
17347;SDS011;8791;50.876;4.342;2024-01-07T08:16:19;69.50;;;29.97;;
17347;SDS011;8791;50.876;4.342;2024-01-07T08:18:46;72.37;;;30.13;;
17347;SDS011;8791;50.876;4.342;2024-01-07T08:21:13;70.43;;;30.80;;
17347;SDS011;8791;50.876;4.342;2024-01-07T08:23:40;72.67;;;31.93;;
17347;SDS011;8791;50.876;4.342;2024-01-07T08:26:09;66.07;;;28.73;;
17347;SDS011;8791;50.876;4.342;2024-01-07T08:28:36;58.93;;;26.23;;
17347;SDS011;8791;50.876;4.342;2024-01-07T08:31:02;63.90;;;28.20;;
17347;SDS011;8791;50.876;4.342;2024-01-07T08:33:29;62.93;;;27.83;;
17347;SDS011;8791;50.876;4.342;2024-01-07T08:35:58;64.60;;;26.93;;
17347;SDS011;8791;50.876;4.342;2024-01-07T08:38:25;61.27;;;27.17;;
17347;SDS011;8791;50.876;4.342;2024-01-07T08:40:52;58.03;;;27.30;;
17347;SDS011;8791;50.876;4.342;2024-01-07T08:43:21;51.57;;;24.97;;
17347;SDS011;8791;50.876;4.342;2024-01-07T08:45:48;45.70;;;23.80;;
17347;SDS011;8791;50.876;4.342;2024-01-07T08:48:15;48.47;;;24.33;;
17347;SDS011;8791;50.876;4.342;2024-01-07T08:50:42;48.93;;;23.63;;
17347;SDS011;8791;50.876;4.342;2024-01-07T08:53:11;38.43;;;20.80;;
17347;SDS011;8791;50.876;4.342;2024-01-07T08:55:39;39.57;;;21.07;;
17347;SDS011;8791;50.876;4.342;2024-01-07T08:58:06;38.40;;;20.27;;
17347;SDS011;8791;50.876;4.342;2024-01-07T09:00:35;38.60;;;20.33;;
17347;SDS011;8791;50.876;4.342;2024-01-07T09:03:02;32.73;;;19.03;;
17347;SDS011;8791;50.876;4.342;2024-01-07T09:05:29;35.60;;;19.90;;
17347;SDS011;8791;50.876;4.342;2024-01-07T09:07:56;37.07;;;19.63;;
17347;SDS011;8791;50.876;4.342;2024-01-07T09:10:23;33.13;;;18.63;;
17347;SDS011;8791;50.876;4.342;2024-01-07T09:12:50;35.10;;;19.20;;
17347;SDS011;8791;50.876;4.342;2024-01-07T09:15:18;32.67;;;17.97;;
17347;SDS011;8791;50.876;4.342;2024-01-07T09:17:47;33.63;;;19.50;;
17347;SDS011;8791;50.876;4.342;2024-01-07T09:20:13;30.57;;;18.17;;
17347;SDS011;8791;50.876;4.342;2024-01-07T09:22:40;35.63;;;20.17;;
17347;SDS011;8791;50.876;4.342;2024-01-07T09:25:09;34.83;;;19.50;;
17347;SDS011;8791;50.876;4.342;2024-01-07T09:27:36;34.43;;;19.07;;
17347;SDS011;8791;50.876;4.342;2024-01-07T09:30:03;30.47;;;17.27;;
17347;SDS011;8791;50.876;4.342;2024-01-07T09:32:31;32.87;;;17.73;;
17347;SDS011;8791;50.876;4.342;2024-01-07T09:34:59;31.40;;;17.70;;
17347;SDS011;8791;50.876;4.342;2024-01-07T09:37:26;34.60;;;18.90;;
17347;SDS011;8791;50.876;4.342;2024-01-07T09:39:53;30.87;;;17.63;;
17347;SDS011;8791;50.876;4.342;2024-01-07T09:42:20;36.00;;;18.97;;
17347;SDS011;8791;50.876;4.342;2024-01-07T09:44:47;36.40;;;19.70;;
17347;SDS011;8791;50.876;4.342;2024-01-07T09:47:16;35.10;;;18.90;;
17347;SDS011;8791;50.876;4.342;2024-01-07T09:49:43;37.57;;;19.57;;
17347;SDS011;8791;50.876;4.342;2024-01-07T09:52:12;40.67;;;19.87;;
17347;SDS011;8791;50.876;4.342;2024-01-07T09:54:39;36.00;;;20.00;;
17347;SDS011;8791;50.876;4.342;2024-01-07T09:57:07;36.93;;;21.43;;
17347;SDS011;8791;50.876;4.342;2024-01-07T09:59:35;34.57;;;20.40;;
17347;SDS011;8791;50.876;4.342;2024-01-07T10:02:04;32.67;;;19.07;;
17347;SDS011;8791;50.876;4.342;2024-01-07T10:04:31;39.57;;;20.13;;
17347;SDS011;8791;50.876;4.342;2024-01-07T10:06:58;35.87;;;20.80;;
17347;SDS011;8791;50.876;4.342;2024-01-07T10:09:29;35.70;;;20.63;;
17347;SDS011;8791;50.876;4.342;2024-01-07T10:11:59;37.80;;;20.50;;
17347;SDS011;8791;50.876;4.342;2024-01-07T10:14:27;31.37;;;20.07;;
17347;SDS011;8791;50.876;4.342;2024-01-07T10:16:55;37.67;;;20.73;;
17347;SDS011;8791;50.876;4.342;2024-01-07T10:19:23;41.97;;;23.13;;
17347;SDS011;8791;50.876;4.342;2024-01-07T10:21:59;43.13;;;23.23;;
17347;SDS011;8791;50.876;4.342;2024-01-07T10:24:32;42.40;;;22.60;;
17347;SDS011;8791;50.876;4.342;2024-01-07T10:27:03;47.40;;;23.87;;
17347;SDS011;8791;50.876;4.342;2024-01-07T10:29:31;36.70;;;21.90;;
17347;SDS011;8791;50.876;4.342;2024-01-07T10:31:58;36.70;;;20.03;;
17347;SDS011;8791;50.876;4.342;2024-01-07T10:34:28;35.93;;;21.93;;
17347;SDS011;8791;50.876;4.342;2024-01-07T10:36:57;38.50;;;21.17;;
17347;SDS011;8791;50.876;4.342;2024-01-07T10:39:26;35.87;;;20.73;;
17347;SDS011;8791;50.876;4.342;2024-01-07T10:41:55;34.60;;;20.77;;
17347;SDS011;8791;50.876;4.342;2024-01-07T10:44:24;33.47;;;20.37;;
17347;SDS011;8791;50.876;4.342;2024-01-07T10:46:53;36.27;;;20.27;;
17347;SDS011;8791;50.876;4.342;2024-01-07T10:49:22;34.60;;;20.00;;
17347;SDS011;8791;50.876;4.342;2024-01-07T10:51:55;34.63;;;19.50;;
17347;SDS011;8791;50.876;4.342;2024-01-07T10:54:29;35.37;;;20.23;;
17347;SDS011;8791;50.876;4.342;2024-01-07T10:57:00;33.53;;;19.30;;
17347;SDS011;8791;50.876;4.342;2024-01-07T10:59:33;34.07;;;19.43;;
17347;SDS011;8791;50.876;4.342;2024-01-07T11:02:02;36.23;;;19.87;;
17347;SDS011;8791;50.876;4.342;2024-01-07T11:04:31;35.30;;;19.17;;
17347;SDS011;8791;50.876;4.342;2024-01-07T11:07:09;38.57;;;20.50;;
17347;SDS011;8791;50.876;4.342;2024-01-07T11:09:48;31.37;;;18.67;;
17347;SDS011;8791;50.876;4.342;2024-01-07T11:12:23;31.60;;;18.53;;
17347;SDS011;8791;50.876;4.342;2024-01-07T11:14:50;30.10;;;16.57;;
17347;SDS011;8791;50.876;4.342;2024-01-07T11:17:39;37.83;;;19.57;;
17347;SDS011;8791;50.876;4.342;2024-01-07T11:20:17;26.43;;;17.20;;
17347;SDS011;8791;50.876;4.342;2024-01-07T11:22:46;28.00;;;16.30;;
17347;SDS011;8791;50.876;4.342;2024-01-07T11:25:29;23.97;;;15.53;;
17347;SDS011;8791;50.876;4.342;2024-01-07T11:27:58;27.20;;;15.60;;
17347;SDS011;8791;50.876;4.342;2024-01-07T11:30:28;28.20;;;17.27;;
17347;SDS011;8791;50.876;4.342;2024-01-07T11:32:58;25.43;;;16.70;;
17347;SDS011;8791;50.876;4.342;2024-01-07T11:38:23;32.23;;;18.70;;
17347;SDS011;8791;50.876;4.342;2024-01-07T11:40:49;37.33;;;19.10;;
17347;SDS011;8791;50.876;4.342;2024-01-07T11:43:19;30.67;;;18.10;;
17347;SDS011;8791;50.876;4.342;2024-01-07T11:45:46;34.57;;;17.77;;
17347;SDS011;8791;50.876;4.342;2024-01-07T11:48:15;35.17;;;18.20;;
17347;SDS011;8791;50.876;4.342;2024-01-07T11:50:42;26.80;;;15.23;;
17347;SDS011;8791;50.876;4.342;2024-01-07T11:53:11;28.10;;;16.83;;
17347;SDS011;8791;50.876;4.342;2024-01-07T11:55:38;28.57;;;15.73;;
17347;SDS011;8791;50.876;4.342;2024-01-07T11:58:05;23.97;;;13.03;;
17347;SDS011;8791;50.876;4.342;2024-01-07T12:00:34;26.37;;;14.97;;
17347;SDS011;8791;50.876;4.342;2024-01-07T12:03:01;27.43;;;15.37;;
17347;SDS011;8791;50.876;4.342;2024-01-07T12:05:29;30.73;;;15.80;;
17347;SDS011;8791;50.876;4.342;2024-01-07T12:07:56;27.97;;;14.50;;
17347;SDS011;8791;50.876;4.342;2024-01-07T12:10:24;30.70;;;15.13;;
17347;SDS011;8791;50.876;4.342;2024-01-07T12:12:55;26.57;;;14.63;;
17347;SDS011;8791;50.876;4.342;2024-01-07T12:15:23;26.90;;;14.37;;
17347;SDS011;8791;50.876;4.342;2024-01-07T12:17:58;23.50;;;13.60;;
17347;SDS011;8791;50.876;4.342;2024-01-07T12:20:26;27.27;;;14.77;;
17347;SDS011;8791;50.876;4.342;2024-01-07T12:22:57;33.00;;;13.97;;
17347;SDS011;8791;50.876;4.342;2024-01-07T12:25:31;27.37;;;14.50;;
17347;SDS011;8791;50.876;4.342;2024-01-07T12:27:58;21.10;;;13.07;;
17347;SDS011;8791;50.876;4.342;2024-01-07T12:30:25;25.33;;;13.40;;
17347;SDS011;8791;50.876;4.342;2024-01-07T12:32:52;27.83;;;14.03;;
17347;SDS011;8791;50.876;4.342;2024-01-07T12:35:21;23.33;;;13.03;;
17347;SDS011;8791;50.876;4.342;2024-01-07T12:37:51;19.30;;;12.57;;
17347;SDS011;8791;50.876;4.342;2024-01-07T12:40:18;19.70;;;13.27;;
17347;SDS011;8791;50.876;4.342;2024-01-07T12:42:46;21.97;;;12.87;;
17347;SDS011;8791;50.876;4.342;2024-01-07T12:45:14;24.10;;;13.33;;
17347;SDS011;8791;50.876;4.342;2024-01-07T12:47:41;21.03;;;12.87;;
17347;SDS011;8791;50.876;4.342;2024-01-07T12:50:09;20.73;;;13.70;;
17347;SDS011;8791;50.876;4.342;2024-01-07T12:52:38;20.83;;;13.17;;
17347;SDS011;8791;50.876;4.342;2024-01-07T12:55:05;22.30;;;13.27;;
17347;SDS011;8791;50.876;4.342;2024-01-07T12:57:33;19.83;;;12.73;;
17347;SDS011;8791;50.876;4.342;2024-01-07T13:00:01;19.83;;;13.63;;
17347;SDS011;8791;50.876;4.342;2024-01-07T13:02:31;25.33;;;13.80;;
17347;SDS011;8791;50.876;4.342;2024-01-07T13:04:58;25.77;;;13.50;;
17347;SDS011;8791;50.876;4.342;2024-01-07T13:07:25;31.83;;;13.93;;
17347;SDS011;8791;50.876;4.342;2024-01-07T13:09:53;20.47;;;12.60;;
17347;SDS011;8791;50.876;4.342;2024-01-07T13:12:20;21.97;;;11.70;;
17347;SDS011;8791;50.876;4.342;2024-01-07T13:14:47;19.93;;;13.47;;
17347;SDS011;8791;50.876;4.342;2024-01-07T13:17:14;19.83;;;13.37;;
17347;SDS011;8791;50.876;4.342;2024-01-07T13:19:41;19.83;;;13.23;;
17347;SDS011;8791;50.876;4.342;2024-01-07T13:22:09;23.37;;;14.13;;
17347;SDS011;8791;50.876;4.342;2024-01-07T13:24:36;21.17;;;14.00;;
17347;SDS011;8791;50.876;4.342;2024-01-07T13:27:05;23.87;;;13.50;;
17347;SDS011;8791;50.876;4.342;2024-01-07T13:29:33;21.17;;;13.43;;
17347;SDS011;8791;50.876;4.342;2024-01-07T13:32:00;21.63;;;13.67;;
17347;SDS011;8791;50.876;4.342;2024-01-07T13:34:27;20.80;;;13.10;;
17347;SDS011;8791;50.876;4.342;2024-01-07T13:36:55;17.87;;;12.07;;
17347;SDS011;8791;50.876;4.342;2024-01-07T13:39:22;18.97;;;12.20;;
17347;SDS011;8791;50.876;4.342;2024-01-07T13:41:49;16.90;;;12.17;;
17347;SDS011;8791;50.876;4.342;2024-01-07T13:44:17;19.83;;;12.27;;
17347;SDS011;8791;50.876;4.342;2024-01-07T13:46:44;20.67;;;12.70;;
17347;SDS011;8791;50.876;4.342;2024-01-07T13:49:12;21.30;;;12.03;;
17347;SDS011;8791;50.876;4.342;2024-01-07T13:51:39;18.37;;;12.23;;
17347;SDS011;8791;50.876;4.342;2024-01-07T13:54:06;18.10;;;12.07;;
17347;SDS011;8791;50.876;4.342;2024-01-07T13:56:35;15.27;;;11.10;;
17347;SDS011;8791;50.876;4.342;2024-01-07T13:59:06;14.87;;;11.13;;
17347;SDS011;8791;50.876;4.342;2024-01-07T14:01:34;15.13;;;11.37;;
17347;SDS011;8791;50.876;4.342;2024-01-07T14:04:02;20.07;;;12.50;;
17347;SDS011;8791;50.876;4.342;2024-01-07T14:06:29;16.27;;;11.47;;
17347;SDS011;8791;50.876;4.342;2024-01-07T14:08:56;18.60;;;11.77;;
17347;SDS011;8791;50.876;4.342;2024-01-07T14:11:23;15.63;;;11.73;;
17347;SDS011;8791;50.876;4.342;2024-01-07T14:13:51;16.60;;;12.30;;
17347;SDS011;8791;50.876;4.342;2024-01-07T14:16:18;20.23;;;13.27;;
17347;SDS011;8791;50.876;4.342;2024-01-07T14:18:47;19.17;;;13.87;;
17347;SDS011;8791;50.876;4.342;2024-01-07T14:21:14;22.50;;;14.60;;
17347;SDS011;8791;50.876;4.342;2024-01-07T14:23:41;18.10;;;12.83;;
17347;SDS011;8791;50.876;4.342;2024-01-07T14:26:08;20.83;;;12.63;;
17347;SDS011;8791;50.876;4.342;2024-01-07T14:28:35;18.33;;;13.17;;
17347;SDS011;8791;50.876;4.342;2024-01-07T14:31:02;18.63;;;12.63;;
17347;SDS011;8791;50.876;4.342;2024-01-07T14:33:29;19.40;;;12.83;;
17347;SDS011;8791;50.876;4.342;2024-01-07T14:35:57;20.10;;;13.03;;
17347;SDS011;8791;50.876;4.342;2024-01-07T14:38:24;18.93;;;14.40;;
17347;SDS011;8791;50.876;4.342;2024-01-07T14:40:52;17.83;;;12.80;;
17347;SDS011;8791;50.876;4.342;2024-01-07T14:43:19;20.27;;;12.53;;